Disclaimer

Please do not use the information listed here in-flight or in-navigation, as they are not provided to us by the airports but are provided by volunteers, so they might be outdated.

Search


Regions


Airport information page

Radio informations:
CTAF/UNICOM - 122.8 MHz
PACIFIC RDO - 126.7 MHz

Airport informations:
Latitude: 51° 17' 57.00" N
Longitude: 116° 58' 56.00" W
Elevation: 2575 feet - 785 meters
Operating hours: N/A
Operating agency: Municipal
Timezone: Second Sunday in March at 0200 to first Sunday in November at 0200 local time (Exception Arizona and that portion of Indiana in the Eastern Time Zone)
Fuel: Jet B, Wide cut turbine fuel, Without icing inhibitor.

100/130 MIL Spec, low lead, aviation gasoline (BLUE)

Runway information:
14/32 - 4500 x 75 feet< - >1372 x 23 meters

Recent METARs:
CYGE 181600Z 30004KT 20SM FEW002 FEW013 FEW050 BKN070 BKN100 M05/M07 A3029 RMK SC1SC1SC1AC3AC2 SC TR SLP301
CYGE 181700Z 30005KT 20SM FEW002 FEW020 BKN070 BKN100 M04/M06 A3030 RMK SC1SC1AC4AC1 SLP306
CYGE 181700Z 30005KT 20SM FEW002 FEW020 BKN070 BKN100 M04/M06 A3030 RMK SC1SC1AC4AC1 SLP306

Airport on the map: